sensor_id;sensor_type;location;lat;lon;timestamp;pressure;altitude;pressure_sealevel;temperature;humidity
9784;BME280;4931;44.874;-1.092;2023-03-20T00:00:35;102149.25;;;10.51;100.00
9784;BME280;4931;44.874;-1.092;2023-03-20T00:03:02;102156.03;;;10.48;100.00
9784;BME280;4931;44.874;-1.092;2023-03-20T00:05:28;102152.09;;;10.44;100.00
9784;BME280;4931;44.874;-1.092;2023-03-20T00:07:55;102152.34;;;10.42;100.00
9784;BME280;4931;44.874;-1.092;2023-03-20T00:10:25;102150.22;;;10.44;100.00
9784;BME280;4931;44.874;-1.092;2023-03-20T00:12:53;102152.69;;;10.46;100.00
9784;BME280;4931;44.874;-1.092;2023-03-20T00:15:31;102151.53;;;10.42;100.00
9784;BME280;4931;44.874;-1.092;2023-03-20T00:17:57;102148.03;;;10.46;100.00
9784;BME280;4931;44.874;-1.092;2023-03-20T00:20:23;102149.13;;;10.45;100.00
9784;BME280;4931;44.874;-1.092;2023-03-20T00:22:50;102155.69;;;10.44;100.00
9784;BME280;4931;44.874;-1.092;2023-03-20T00:25:18;102162.25;;;10.43;100.00
9784;BME280;4931;44.874;-1.092;2023-03-20T00:27:44;102157.13;;;10.47;100.00
9784;BME280;4931;44.874;-1.092;2023-03-20T00:30:29;102164.03;;;10.50;100.00
9784;BME280;4931;44.874;-1.092;2023-03-20T00:32:57;102162.19;;;10.55;100.00
9784;BME280;4931;44.874;-1.092;2023-03-20T00:35:29;102163.06;;;10.56;100.00
9784;BME280;4931;44.874;-1.092;2023-03-20T00:37:56;102161.38;;;10.55;100.00
9784;BME280;4931;44.874;-1.092;2023-03-20T00:40:26;102155.19;;;10.48;100.00
9784;BME280;4931;44.874;-1.092;2023-03-20T00:42:58;102160.22;;;10.51;100.00
9784;BME280;4931;44.874;-1.092;2023-03-20T00:45:24;102161.38;;;10.55;100.00
9784;BME280;4931;44.874;-1.092;2023-03-20T00:47:50;102153.63;;;10.52;100.00
9784;BME280;4931;44.874;-1.092;2023-03-20T00:50:21;102153.16;;;10.55;100.00
9784;BME280;4931;44.874;-1.092;2023-03-20T00:52:49;102157.22;;;10.52;100.00
9784;BME280;4931;44.874;-1.092;2023-03-20T00:55:16;102158.03;;;10.53;100.00
9784;BME280;4931;44.874;-1.092;2023-03-20T00:57:46;102153.31;;;10.48;100.00
9784;BME280;4931;44.874;-1.092;2023-03-20T01:00:25;102151.38;;;10.49;100.00
9784;BME280;4931;44.874;-1.092;2023-03-20T01:02:54;102147.56;;;10.50;100.00
9784;BME280;4931;44.874;-1.092;2023-03-20T01:05:20;102151.38;;;10.49;100.00
9784;BME280;4931;44.874;-1.092;2023-03-20T01:07:46;102151.88;;;10.45;100.00
9784;BME280;4931;44.874;-1.092;2023-03-20T01:10:13;102146.16;;;10.47;100.00
9784;BME280;4931;44.874;-1.092;2023-03-20T01:12:40;102140.22;;;10.38;100.00
9784;BME280;4931;44.874;-1.092;2023-03-20T01:15:21;102144.88;;;10.38;100.00
9784;BME280;4931;44.874;-1.092;2023-03-20T01:17:48;102148.19;;;10.40;100.00
9784;BME280;4931;44.874;-1.092;2023-03-20T01:20:20;102158.34;;;10.39;100.00
9784;BME280;4931;44.874;-1.092;2023-03-20T01:22:46;102151.28;;;10.43;100.00
9784;BME280;4931;44.874;-1.092;2023-03-20T01:25:11;102148.69;;;10.37;100.00
9784;BME280;4931;44.874;-1.092;2023-03-20T01:27:38;102148.44;;;10.38;100.00
9784;BME280;4931;44.874;-1.092;2023-03-20T01:30:13;102151.69;;;10.35;100.00
9784;BME280;4931;44.874;-1.092;2023-03-20T01:32:40;102141.06;;;10.39;100.00
9784;BME280;4931;44.874;-1.092;2023-03-20T01:35:11;102144.13;;;10.42;100.00
9784;BME280;4931;44.874;-1.092;2023-03-20T01:37:37;102153.78;;;10.33;100.00
9784;BME280;4931;44.874;-1.092;2023-03-20T01:40:03;102152.88;;;10.27;100.00
9784;BME280;4931;44.874;-1.092;2023-03-20T01:42:35;102146.25;;;10.11;100.00
9784;BME280;4931;44.874;-1.092;2023-03-20T01:45:01;102143.66;;;10.05;100.00
9784;BME280;4931;44.874;-1.092;2023-03-20T01:47:33;102140.19;;;9.97;100.00
9784;BME280;4931;44.874;-1.092;2023-03-20T01:50:19;102141.25;;;9.96;100.00
9784;BME280;4931;44.874;-1.092;2023-03-20T01:52:55;102142.00;;;9.92;100.00
9784;BME280;4931;44.874;-1.092;2023-03-20T01:55:22;102139.84;;;9.94;100.00
9784;BME280;4931;44.874;-1.092;2023-03-20T01:57:51;102125.75;;;10.02;100.00
9784;BME280;4931;44.874;-1.092;2023-03-20T02:00:17;102133.00;;;10.08;100.00
9784;BME280;4931;44.874;-1.092;2023-03-20T02:02:46;102123.13;;;10.07;100.00
9784;BME280;4931;44.874;-1.092;2023-03-20T02:05:14;102131.94;;;10.09;100.00
9784;BME280;4931;44.874;-1.092;2023-03-20T02:07:46;102115.47;;;10.09;100.00
9784;BME280;4931;44.874;-1.092;2023-03-20T02:10:15;102118.31;;;10.14;100.00
9784;BME280;4931;44.874;-1.092;2023-03-20T02:12:42;102115.59;;;10.14;100.00
9784;BME280;4931;44.874;-1.092;2023-03-20T02:15:08;102107.72;;;10.18;100.00
9784;BME280;4931;44.874;-1.092;2023-03-20T02:17:36;102117.81;;;10.18;100.00
9784;BME280;4931;44.874;-1.092;2023-03-20T02:45:11;102071.91;;;9.96;100.00
9784;BME280;4931;44.874;-1.092;2023-03-20T02:53:19;102066.50;;;9.72;100.00
9784;BME280;4931;44.874;-1.092;2023-03-20T02:56:00;102061.28;;;9.59;100.00
9784;BME280;4931;44.874;-1.092;2023-03-20T02:58:51;102056.75;;;9.64;100.00
9784;BME280;4931;44.874;-1.092;2023-03-20T03:01:46;102053.97;;;9.76;100.00
9784;BME280;4931;44.874;-1.092;2023-03-20T03:04:18;102057.06;;;9.80;100.00
9784;BME280;4931;44.874;-1.092;2023-03-20T03:06:49;102036.47;;;9.77;100.00
9784;BME280;4931;44.874;-1.092;2023-03-20T03:09:23;102037.63;;;9.82;100.00
9784;BME280;4931;44.874;-1.092;2023-03-20T03:11:56;102042.19;;;9.76;100.00
9784;BME280;4931;44.874;-1.092;2023-03-20T03:14:38;102029.56;;;9.75;100.00
9784;BME280;4931;44.874;-1.092;2023-03-20T03:17:06;102022.06;;;9.70;100.00
9784;BME280;4931;44.874;-1.092;2023-03-20T03:19:35;102027.31;;;9.72;100.00
9784;BME280;4931;44.874;-1.092;2023-03-20T03:22:03;102029.59;;;9.63;100.00
9784;BME280;4931;44.874;-1.092;2023-03-20T03:24:34;102034.47;;;9.61;100.00
9784;BME280;4931;44.874;-1.092;2023-03-20T03:27:03;102033.78;;;9.54;100.00
9784;BME280;4931;44.874;-1.092;2023-03-20T03:29:36;102036.88;;;9.45;100.00
9784;BME280;4931;44.874;-1.092;2023-03-20T03:32:05;102036.06;;;9.33;100.00
9784;BME280;4931;44.874;-1.092;2023-03-20T03:34:32;102028.25;;;9.25;100.00
9784;BME280;4931;44.874;-1.092;2023-03-20T03:37:20;102034.16;;;9.22;100.00
9784;BME280;4931;44.874;-1.092;2023-03-20T03:42:28;102038.69;;;9.28;100.00
9784;BME280;4931;44.874;-1.092;2023-03-20T03:48:05;102041.94;;;9.25;100.00
9784;BME280;4931;44.874;-1.092;2023-03-20T03:50:40;102046.91;;;9.16;100.00
9784;BME280;4931;44.874;-1.092;2023-03-20T03:53:13;102037.28;;;9.13;100.00
9784;BME280;4931;44.874;-1.092;2023-03-20T03:55:44;102035.72;;;9.18;100.00
9784;BME280;4931;44.874;-1.092;2023-03-20T03:58:19;102036.81;;;9.17;100.00
9784;BME280;4931;44.874;-1.092;2023-03-20T04:00:48;102035.47;;;9.19;100.00
9784;BME280;4931;44.874;-1.092;2023-03-20T04:03:18;102030.84;;;9.20;100.00
9784;BME280;4931;44.874;-1.092;2023-03-20T04:05:46;102025.88;;;9.17;100.00
9784;BME280;4931;44.874;-1.092;2023-03-20T04:08:13;102019.78;;;9.14;100.00
9784;BME280;4931;44.874;-1.092;2023-03-20T04:10:40;102030.25;;;9.18;100.00
9784;BME280;4931;44.874;-1.092;2023-03-20T04:13:06;102035.16;;;9.16;100.00
9784;BME280;4931;44.874;-1.092;2023-03-20T04:15:32;102033.25;;;9.16;100.00
9784;BME280;4931;44.874;-1.092;2023-03-20T04:17:57;102030.00;;;9.19;100.00
9784;BME280;4931;44.874;-1.092;2023-03-20T04:20:23;102039.06;;;9.20;100.00
9784;BME280;4931;44.874;-1.092;2023-03-20T04:22:49;102035.47;;;9.19;100.00
9784;BME280;4931;44.874;-1.092;2023-03-20T04:25:20;102040.13;;;9.19;100.00
9784;BME280;4931;44.874;-1.092;2023-03-20T04:27:46;102031.94;;;9.19;100.00
9784;BME280;4931;44.874;-1.092;2023-03-20T04:30:12;102034.31;;;9.15;100.00
9784;BME280;4931;44.874;-1.092;2023-03-20T04:32:38;102039.44;;;9.11;100.00
9784;BME280;4931;44.874;-1.092;2023-03-20T04:35:03;102033.72;;;9.01;100.00
9784;BME280;4931;44.874;-1.092;2023-03-20T04:37:29;102030.38;;;8.99;100.00
9784;BME280;4931;44.874;-1.092;2023-03-20T04:39:54;102025.84;;;8.93;100.00
9784;BME280;4931;44.874;-1.092;2023-03-20T04:42:20;102032.28;;;8.87;100.00
9784;BME280;4931;44.874;-1.092;2023-03-20T04:44:45;102025.63;;;8.83;100.00
9784;BME280;4931;44.874;-1.092;2023-03-20T04:47:11;102021.09;;;8.76;100.00
9784;BME280;4931;44.874;-1.092;2023-03-20T04:49:36;102018.25;;;8.71;100.00
9784;BME280;4931;44.874;-1.092;2023-03-20T04:52:02;102017.06;;;8.67;100.00
9784;BME280;4931;44.874;-1.092;2023-03-20T04:54:27;102007.78;;;8.56;100.00
9784;BME280;4931;44.874;-1.092;2023-03-20T04:56:53;102004.06;;;8.51;100.00
9784;BME280;4931;44.874;-1.092;2023-03-20T04:59:18;102008.53;;;8.45;100.00
9784;BME280;4931;44.874;-1.092;2023-03-20T05:01:44;102015.53;;;8.29;100.00
9784;BME280;4931;44.874;-1.092;2023-03-20T05:04:10;102010.63;;;8.19;100.00
9784;BME280;4931;44.874;-1.092;2023-03-20T05:06:35;101995.31;;;8.18;100.00
9784;BME280;4931;44.874;-1.092;2023-03-20T05:09:01;101997.66;;;8.14;100.00
9784;BME280;4931;44.874;-1.092;2023-03-20T05:11:27;101993.13;;;8.08;100.00
9784;BME280;4931;44.874;-1.092;2023-03-20T05:13:53;101994.91;;;8.03;100.00
9784;BME280;4931;44.874;-1.092;2023-03-20T05:16:19;101996.19;;;8.00;100.00
9784;BME280;4931;44.874;-1.092;2023-03-20T05:18:45;101992.69;;;7.93;100.00
9784;BME280;4931;44.874;-1.092;2023-03-20T05:21:11;101996.28;;;7.93;100.00
9784;BME280;4931;44.874;-1.092;2023-03-20T05:23:36;102000.47;;;7.96;100.00
9784;BME280;4931;44.874;-1.092;2023-03-20T05:26:02;102006.38;;;7.93;100.00
9784;BME280;4931;44.874;-1.092;2023-03-20T05:28:27;102000.06;;;7.92;100.00
9784;BME280;4931;44.874;-1.092;2023-03-20T05:30:53;102001.38;;;7.90;100.00
9784;BME280;4931;44.874;-1.092;2023-03-20T05:33:19;102009.56;;;7.90;100.00
9784;BME280;4931;44.874;-1.092;2023-03-20T05:35:47;102008.03;;;7.94;100.00
9784;BME280;4931;44.874;-1.092;2023-03-20T05:38:13;102018.59;;;7.90;100.00
9784;BME280;4931;44.874;-1.092;2023-03-20T05:40:38;102018.69;;;7.84;100.00
9784;BME280;4931;44.874;-1.092;2023-03-20T05:43:06;102026.88;;;7.84;100.00
9784;BME280;4931;44.874;-1.092;2023-03-20T05:45:32;102029.16;;;7.87;100.00
9784;BME280;4931;44.874;-1.092;2023-03-20T05:47:57;102023.19;;;7.78;100.00
9784;BME280;4931;44.874;-1.092;2023-03-20T05:50:23;102020.16;;;7.68;100.00
9784;BME280;4931;44.874;-1.092;2023-03-20T05:52:48;102020.09;;;7.56;100.00
9784;BME280;4931;44.874;-1.092;2023-03-20T05:55:14;102022.81;;;7.56;100.00
9784;BME280;4931;44.874;-1.092;2023-03-20T05:57:40;102018.72;;;7.46;100.00
9784;BME280;4931;44.874;-1.092;2023-03-20T06:00:07;102028.88;;;7.39;100.00
9784;BME280;4931;44.874;-1.092;2023-03-20T06:02:35;102030.16;;;7.37;100.00
9784;BME280;4931;44.874;-1.092;2023-03-20T06:05:01;102029.81;;;7.33;100.00
9784;BME280;4931;44.874;-1.092;2023-03-20T06:07:27;102035.84;;;7.35;100.00
9784;BME280;4931;44.874;-1.092;2023-03-20T06:09:53;102027.50;;;7.30;100.00
9784;BME280;4931;44.874;-1.092;2023-03-20T06:12:18;102028.13;;;7.32;100.00
9784;BME280;4931;44.874;-1.092;2023-03-20T06:14:44;102034.81;;;7.36;100.00
9784;BME280;4931;44.874;-1.092;2023-03-20T06:17:09;102025.09;;;7.40;100.00
9784;BME280;4931;44.874;-1.092;2023-03-20T06:19:35;102029.88;;;7.45;100.00
9784;BME280;4931;44.874;-1.092;2023-03-20T06:22:01;102032.22;;;7.41;100.00
9784;BME280;4931;44.874;-1.092;2023-03-20T06:24:26;102034.06;;;7.29;100.00
9784;BME280;4931;44.874;-1.092;2023-03-20T06:26:52;102041.16;;;7.30;100.00
9784;BME280;4931;44.874;-1.092;2023-03-20T06:29:17;102038.34;;;7.18;100.00
9784;BME280;4931;44.874;-1.092;2023-03-20T06:31:43;102045.41;;;7.26;100.00
9784;BME280;4931;44.874;-1.092;2023-03-20T06:34:08;102042.09;;;7.24;100.00
9784;BME280;4931;44.874;-1.092;2023-03-20T06:36:34;102043.72;;;7.25;100.00
9784;BME280;4931;44.874;-1.092;2023-03-20T06:38:59;102042.09;;;7.24;100.00
9784;BME280;4931;44.874;-1.092;2023-03-20T06:41:25;102039.72;;;7.27;100.00
9784;BME280;4931;44.874;-1.092;2023-03-20T06:43:51;102037.00;;;7.27;100.00
9784;BME280;4931;44.874;-1.092;2023-03-20T06:46:16;102046.38;;;7.13;100.00
9784;BME280;4931;44.874;-1.092;2023-03-20T06:48:42;102047.09;;;7.27;100.00
9784;BME280;4931;44.874;-1.092;2023-03-20T06:51:07;102055.59;;;7.37;100.00
9784;BME280;4931;44.874;-1.092;2023-03-20T06:53:33;102061.38;;;7.47;100.00
9784;BME280;4931;44.874;-1.092;2023-03-20T06:55:59;102058.31;;;7.56;100.00
9784;BME280;4931;44.874;-1.092;2023-03-20T06:58:24;102050.91;;;7.63;100.00
9784;BME280;4931;44.874;-1.092;2023-03-20T07:00:50;102051.34;;;7.60;100.00
9784;BME280;4931;44.874;-1.092;2023-03-20T07:03:16;102049.00;;;7.63;100.00
9784;BME280;4931;44.874;-1.092;2023-03-20T07:05:41;102050.81;;;7.70;100.00
9784;BME280;4931;44.874;-1.092;2023-03-20T07:08:08;102048.91;;;7.70;100.00
9784;BME280;4931;44.874;-1.092;2023-03-20T07:10:34;102048.91;;;7.70;100.00
9784;BME280;4931;44.874;-1.092;2023-03-20T07:12:59;102048.59;;;7.78;100.00
9784;BME280;4931;44.874;-1.092;2023-03-20T07:15:25;102046.63;;;7.86;100.00
9784;BME280;4931;44.874;-1.092;2023-03-20T07:17:51;102049.16;;;7.99;100.00
9784;BME280;4931;44.874;-1.092;2023-03-20T07:20:17;102053.25;;;8.08;100.00
9784;BME280;4931;44.874;-1.092;2023-03-20T07:22:43;102044.25;;;8.20;100.00
9784;BME280;4931;44.874;-1.092;2023-03-20T07:25:10;102047.38;;;8.35;100.00
9784;BME280;4931;44.874;-1.092;2023-03-20T07:27:35;102053.91;;;8.53;100.00
9784;BME280;4931;44.874;-1.092;2023-03-20T07:30:03;102054.88;;;8.70;100.00
9784;BME280;4931;44.874;-1.092;2023-03-20T07:32:28;102050.59;;;8.74;100.00
9784;BME280;4931;44.874;-1.092;2023-03-20T07:34:54;102053.00;;;8.94;100.00
9784;BME280;4931;44.874;-1.092;2023-03-20T07:37:19;102047.75;;;9.40;100.00
9784;BME280;4931;44.874;-1.092;2023-03-20T07:39:45;102047.13;;;9.91;100.00
9784;BME280;4931;44.874;-1.092;2023-03-20T07:42:10;102055.03;;;10.33;100.00
9784;BME280;4931;44.874;-1.092;2023-03-20T07:44:38;102059.25;;;10.53;100.00
9784;BME280;4931;44.874;-1.092;2023-03-20T07:47:04;102054.88;;;10.86;100.00
9784;BME280;4931;44.874;-1.092;2023-03-20T07:49:30;102063.91;;;11.20;100.00
9784;BME280;4931;44.874;-1.092;2023-03-20T07:51:56;102056.03;;;11.46;100.00
9784;BME280;4931;44.874;-1.092;2023-03-20T07:54:21;102063.94;;;11.65;100.00
9784;BME280;4931;44.874;-1.092;2023-03-20T07:56:47;102068.63;;;11.64;100.00
9784;BME280;4931;44.874;-1.092;2023-03-20T07:59:13;102066.03;;;11.97;100.00
9784;BME280;4931;44.874;-1.092;2023-03-20T08:01:39;102072.00;;;11.93;100.00
9784;BME280;4931;44.874;-1.092;2023-03-20T08:04:04;102055.44;;;11.88;100.00
9784;BME280;4931;44.874;-1.092;2023-03-20T08:06:30;102062.34;;;11.91;100.00
9784;BME280;4931;44.874;-1.092;2023-03-20T08:08:55;102060.59;;;11.79;100.00
9784;BME280;4931;44.874;-1.092;2023-03-20T08:11:21;102060.84;;;12.00;100.00
9784;BME280;4931;44.874;-1.092;2023-03-20T08:13:46;102059.41;;;12.20;100.00
9784;BME280;4931;44.874;-1.092;2023-03-20T08:16:12;102055.97;;;12.07;100.00
9784;BME280;4931;44.874;-1.092;2023-03-20T08:18:38;102055.56;;;12.48;100.00
9784;BME280;4931;44.874;-1.092;2023-03-20T08:21:03;102043.44;;;12.82;100.00
9784;BME280;4931;44.874;-1.092;2023-03-20T08:23:29;102050.16;;;12.96;100.00
9784;BME280;4931;44.874;-1.092;2023-03-20T08:25:55;102059.34;;;12.74;100.00
9784;BME280;4931;44.874;-1.092;2023-03-20T08:28:21;102047.38;;;12.96;100.00
9784;BME280;4931;44.874;-1.092;2023-03-20T08:30:47;102050.94;;;12.91;100.00
9784;BME280;4931;44.874;-1.092;2023-03-20T08:33:14;102045.09;;;13.20;100.00
9784;BME280;4931;44.874;-1.092;2023-03-20T08:35:40;102042.00;;;13.54;100.00
9784;BME280;4931;44.874;-1.092;2023-03-20T08:38:06;102051.13;;;13.65;100.00
9784;BME280;4931;44.874;-1.092;2023-03-20T08:40:31;102045.56;;;13.55;100.00
9784;BME280;4931;44.874;-1.092;2023-03-20T08:42:57;102046.44;;;13.60;100.00
9784;BME280;4931;44.874;-1.092;2023-03-20T08:45:23;102042.09;;;13.90;100.00
9784;BME280;4931;44.874;-1.092;2023-03-20T08:47:50;102050.66;;;13.89;100.00
9784;BME280;4931;44.874;-1.092;2023-03-20T08:50:17;102040.69;;;13.83;100.00
9784;BME280;4931;44.874;-1.092;2023-03-20T08:52:43;102047.41;;;14.13;100.00
9784;BME280;4931;44.874;-1.092;2023-03-20T08:55:10;102051.84;;;14.14;100.00
9784;BME280;4931;44.874;-1.092;2023-03-20T08:57:36;102052.91;;;14.07;100.00
9784;BME280;4931;44.874;-1.092;2023-03-20T09:00:04;102051.84;;;14.14;100.00
9784;BME280;4931;44.874;-1.092;2023-03-20T09:02:31;102047.41;;;14.07;100.00
9784;BME280;4931;44.874;-1.092;2023-03-20T09:04:56;102044.59;;;13.97;100.00
9784;BME280;4931;44.874;-1.092;2023-03-20T09:07:22;102052.88;;;13.97;100.00
9784;BME280;4931;44.874;-1.092;2023-03-20T09:09:47;102053.53;;;14.30;100.00
9784;BME280;4931;44.874;-1.092;2023-03-20T09:12:12;102049.94;;;14.30;100.00
9784;BME280;4931;44.874;-1.092;2023-03-20T09:14:38;102052.97;;;14.23;100.00
9784;BME280;4931;44.874;-1.092;2023-03-20T09:17:04;102044.63;;;14.02;100.00
9784;BME280;4931;44.874;-1.092;2023-03-20T09:19:30;102050.16;;;14.07;100.00
9784;BME280;4931;44.874;-1.092;2023-03-20T09:21:55;102053.75;;;14.08;100.00
9784;BME280;4931;44.874;-1.092;2023-03-20T09:24:21;102050.09;;;13.82;100.00
9784;BME280;4931;44.874;-1.092;2023-03-20T09:26:48;102052.16;;;14.27;100.00
9784;BME280;4931;44.874;-1.092;2023-03-20T09:29:13;102034.19;;;14.40;100.00
9784;BME280;4931;44.874;-1.092;2023-03-20T09:31:39;102041.69;;;14.60;100.00
9784;BME280;4931;44.874;-1.092;2023-03-20T09:34:04;102044.19;;;14.77;100.00
9784;BME280;4931;44.874;-1.092;2023-03-20T09:36:30;102047.47;;;14.59;100.00
9784;BME280;4931;44.874;-1.092;2023-03-20T09:38:56;102045.00;;;14.83;100.00
9784;BME280;4931;44.874;-1.092;2023-03-20T09:41:23;102048.59;;;14.94;100.00
9784;BME280;4931;44.874;-1.092;2023-03-20T09:44:00;102046.34;;;14.55;100.00
9784;BME280;4931;44.874;-1.092;2023-03-20T09:49:47;102038.63;;;14.41;100.00
9784;BME280;4931;44.874;-1.092;2023-03-20T09:54:54;102035.03;;;14.31;100.00
9784;BME280;4931;44.874;-1.092;2023-03-20T09:57:26;102032.03;;;14.53;100.00
9784;BME280;4931;44.874;-1.092;2023-03-20T09:59:56;102032.28;;;14.36;100.00
9784;BME280;4931;44.874;-1.092;2023-03-20T10:02:52;102034.25;;;14.82;100.00
9784;BME280;4931;44.874;-1.092;2023-03-20T10:05:22;102037.00;;;14.87;100.00
9784;BME280;4931;44.874;-1.092;2023-03-20T10:07:49;102027.56;;;15.08;100.00
9784;BME280;4931;44.874;-1.092;2023-03-20T10:10:15;102036.97;;;15.07;100.00
9784;BME280;4931;44.874;-1.092;2023-03-20T10:18:27;102032.38;;;15.63;100.00
9784;BME280;4931;44.874;-1.092;2023-03-20T10:20:58;102021.25;;;15.79;100.00
9784;BME280;4931;44.874;-1.092;2023-03-20T10:26:05;102031.28;;;15.59;100.00
9784;BME280;4931;44.874;-1.092;2023-03-20T10:28:51;102026.81;;;15.73;100.00
9784;BME280;4931;44.874;-1.092;2023-03-20T10:31:38;102026.81;;;15.73;100.00
9784;BME280;4931;44.874;-1.092;2023-03-20T10:37:17;102013.22;;;15.82;100.00
9784;BME280;4931;44.874;-1.092;2023-03-20T10:42:37;102015.97;;;15.77;100.00
9784;BME280;4931;44.874;-1.092;2023-03-20T10:45:09;102009.06;;;15.85;100.00
9784;BME280;4931;44.874;-1.092;2023-03-20T10:47:42;102007.47;;;15.68;100.00
9784;BME280;4931;44.874;-1.092;2023-03-20T10:50:17;102014.78;;;15.38;100.00
9784;BME280;4931;44.874;-1.092;2023-03-20T10:52:43;102021.97;;;15.39;100.00
9784;BME280;4931;44.874;-1.092;2023-03-20T10:55:19;102017.25;;;16.05;100.00
9784;BME280;4931;44.874;-1.092;2023-03-20T10:57:51;102007.44;;;16.23;100.00
9784;BME280;4931;44.874;-1.092;2023-03-20T11:00:23;102001.06;;;16.23;100.00
9784;BME280;4931;44.874;-1.092;2023-03-20T11:02:50;102003.84;;;16.18;100.00
9784;BME280;4931;44.874;-1.092;2023-03-20T11:05:35;101990.22;;;16.61;100.00
9784;BME280;4931;44.874;-1.092;2023-03-20T11:08:11;101982.47;;;16.63;100.00
9784;BME280;4931;44.874;-1.092;2023-03-20T11:10:38;101980.94;;;16.47;100.00
9784;BME280;4931;44.874;-1.092;2023-03-20T11:15:47;101971.22;;;16.79;100.00
9784;BME280;4931;44.874;-1.092;2023-03-20T11:18:14;101969.44;;;16.93;100.00
9784;BME280;4931;44.874;-1.092;2023-03-20T11:20:54;101981.50;;;17.07;100.00
9784;BME280;4931;44.874;-1.092;2023-03-20T11:23:25;101972.84;;;17.33;100.00
9784;BME280;4931;44.874;-1.092;2023-03-20T11:25:59;101968.47;;;17.51;100.00
9784;BME280;4931;44.874;-1.092;2023-03-20T11:28:36;101966.50;;;17.08;100.00
9784;BME280;4931;44.874;-1.092;2023-03-20T11:31:05;101962.19;;;16.97;100.00
9784;BME280;4931;44.874;-1.092;2023-03-20T11:33:36;101956.59;;;17.02;100.00
9784;BME280;4931;44.874;-1.092;2023-03-20T11:36:11;101960.38;;;16.53;100.00
9784;BME280;4931;44.874;-1.092;2023-03-20T11:38:43;101955.44;;;17.08;100.00
9784;BME280;4931;44.874;-1.092;2023-03-20T11:41:23;101952.44;;;17.24;100.00
9784;BME280;4931;44.874;-1.092;2023-03-20T11:43:49;101953.72;;;17.56;100.00
9784;BME280;4931;44.874;-1.092;2023-03-20T11:46:15;101953.16;;;17.35;100.00
9784;BME280;4931;44.874;-1.092;2023-03-20T11:48:44;101947.38;;;17.31;100.00
9784;BME280;4931;44.874;-1.092;2023-03-20T11:51:19;101947.31;;;17.36;100.00
9784;BME280;4931;44.874;-1.092;2023-03-20T11:56:25;101932.94;;;17.72;100.00
9784;BME280;4931;44.874;-1.092;2023-03-20T11:58:58;101933.63;;;17.64;100.00
9784;BME280;4931;44.874;-1.092;2023-03-20T12:01:27;101929.13;;;17.49;100.00
9784;BME280;4931;44.874;-1.092;2023-03-20T12:12:26;101909.06;;;17.90;100.00
9784;BME280;4931;44.874;-1.092;2023-03-20T12:15:14;101903.00;;;18.07;100.00
9784;BME280;4931;44.874;-1.092;2023-03-20T12:22:59;101901.81;;;17.56;100.00
9784;BME280;4931;44.874;-1.092;2023-03-20T12:25:32;101889.97;;;17.51;100.00
9784;BME280;4931;44.874;-1.092;2023-03-20T12:28:05;101892.97;;;17.73;100.00
9784;BME280;4931;44.874;-1.092;2023-03-20T12:36:12;101873.66;;;18.34;100.00
9784;BME280;4931;44.874;-1.092;2023-03-20T12:38:40;101863.38;;;18.49;100.00
9784;BME280;4931;44.874;-1.092;2023-03-20T12:41:13;101875.72;;;18.29;100.00
9784;BME280;4931;44.874;-1.092;2023-03-20T12:52:05;101847.97;;;18.42;100.00
9784;BME280;4931;44.874;-1.092;2023-03-20T12:55:22;101848.78;;;17.96;100.00
9784;BME280;4931;44.874;-1.092;2023-03-20T13:00:42;101839.31;;;17.97;100.00
9784;BME280;4931;44.874;-1.092;2023-03-20T13:09:07;101821.56;;;18.12;100.00
9784;BME280;4931;44.874;-1.092;2023-03-20T13:17:35;101810.41;;;18.59;100.00
9784;BME280;4931;44.874;-1.092;2023-03-20T13:41:51;101776.84;;;18.69;100.00
9784;BME280;4931;44.874;-1.092;2023-03-20T13:44:19;101777.16;;;18.26;100.00
9784;BME280;4931;44.874;-1.092;2023-03-20T13:46:56;101774.03;;;18.00;100.00
9784;BME280;4931;44.874;-1.092;2023-03-20T14:00:35;101752.25;;;18.49;100.00
9784;BME280;4931;44.874;-1.092;2023-03-20T14:03:16;101761.75;;;18.48;100.00
9784;BME280;4931;44.874;-1.092;2023-03-20T14:05:44;101751.03;;;18.13;100.00
9784;BME280;4931;44.874;-1.092;2023-03-20T14:13:35;101747.44;;;18.27;100.00
9784;BME280;4931;44.874;-1.092;2023-03-20T14:16:07;101749.41;;;18.40;100.00
9784;BME280;4931;44.874;-1.092;2023-03-20T14:18:34;101735.22;;;17.81;100.00
9784;BME280;4931;44.874;-1.092;2023-03-20T14:21:02;101737.63;;;17.87;100.00
9784;BME280;4931;44.874;-1.092;2023-03-20T14:23:43;101740.31;;;18.06;100.00
9784;BME280;4931;44.874;-1.092;2023-03-20T14:26:26;101730.25;;;17.97;100.00
9784;BME280;4931;44.874;-1.092;2023-03-20T14:28:58;101724.78;;;18.05;100.00
9784;BME280;4931;44.874;-1.092;2023-03-20T14:31:25;101719.75;;;17.47;100.00
9784;BME280;4931;44.874;-1.092;2023-03-20T14:34:20;101718.41;;;17.58;100.00
9784;BME280;4931;44.874;-1.092;2023-03-20T14:37:00;101712.50;;;17.79;100.00
9784;BME280;4931;44.874;-1.092;2023-03-20T14:39:33;101714.19;;;17.94;100.00
9784;BME280;4931;44.874;-1.092;2023-03-20T14:47:47;101698.28;;;17.99;100.00
9784;BME280;4931;44.874;-1.092;2023-03-20T14:50:22;101706.81;;;18.17;100.00
9784;BME280;4931;44.874;-1.092;2023-03-20T14:57:55;101696.28;;;17.86;100.00
9784;BME280;4931;44.874;-1.092;2023-03-20T15:00:23;101686.34;;;17.52;100.00
9784;BME280;4931;44.874;-1.092;2023-03-20T15:02:52;101691.72;;;17.62;100.00
9784;BME280;4931;44.874;-1.092;2023-03-20T15:05:27;101694.56;;;17.43;100.00
9784;BME280;4931;44.874;-1.092;2023-03-20T15:08:02;101692.94;;;17.56;100.00
9784;BME280;4931;44.874;-1.092;2023-03-20T15:10:29;101691.44;;;17.78;100.00
9784;BME280;4931;44.874;-1.092;2023-03-20T15:12:55;101699.34;;;17.70;100.00
9784;BME280;4931;44.874;-1.092;2023-03-20T15:15:30;101690.28;;;17.65;100.00
9784;BME280;4931;44.874;-1.092;2023-03-20T15:18:03;101696.56;;;17.70;100.00
9784;BME280;4931;44.874;-1.092;2023-03-20T15:20:28;101685.69;;;17.88;100.00
9784;BME280;4931;44.874;-1.092;2023-03-20T15:22:56;101681.06;;;17.69;100.00
9784;BME280;4931;44.874;-1.092;2023-03-20T15:25:28;101677.78;;;17.81;100.00
9784;BME280;4931;44.874;-1.092;2023-03-20T15:27:55;101681.28;;;17.87;100.00
9784;BME280;4931;44.874;-1.092;2023-03-20T15:30:21;101673.31;;;17.66;100.00
9784;BME280;4931;44.874;-1.092;2023-03-20T15:32:53;101670.53;;;17.66;100.00
9784;BME280;4931;44.874;-1.092;2023-03-20T15:35:21;101665.63;;;17.63;100.00